createdAt,value
2022-09-10T11:12:16.769Z,19.50
2022-09-10T11:14:52.481Z,19.20
2022-09-10T11:17:29.854Z,18.80
2022-09-10T11:20:27.805Z,18.70
2022-09-10T11:23:10.619Z,18.80
2022-09-10T11:25:47.602Z,19.50
2022-09-10T11:28:20.344Z,19.00
2022-09-10T11:30:58.786Z,19.40
2022-09-10T11:33:33.823Z,19.60
2022-09-10T11:36:12.025Z,19.20
2022-09-10T11:38:53.110Z,19.30
2022-09-10T11:41:25.945Z,19.20
2022-09-10T11:44:04.542Z,19.60
2022-09-10T11:46:39.184Z,19.00
2022-09-10T11:49:16.702Z,18.80
2022-09-10T11:51:46.085Z,19.20
2022-09-10T11:54:19.146Z,19.30
2022-09-10T11:56:59.725Z,19.70
2022-09-10T11:59:49.426Z,19.70
2022-09-10T12:03:07.547Z,19.20
2022-09-10T12:05:49.289Z,19.00
2022-09-10T12:08:33.703Z,18.90
2022-09-10T12:11:15.663Z,19.00
2022-09-10T12:13:45.785Z,18.80
2022-09-10T12:16:24.374Z,19.00
2022-09-10T12:18:56.718Z,18.70
2022-09-10T12:21:34.579Z,18.80
2022-09-10T12:24:08.554Z,19.00
2022-09-10T12:26:46.001Z,18.70
2022-09-10T12:29:33.451Z,18.50
2022-09-10T12:32:38.443Z,18.40
2022-09-10T12:35:47.126Z,18.80
2022-09-10T12:38:51.893Z,18.60
2022-09-10T12:42:33.111Z,18.40
2022-09-10T12:45:01.395Z,18.50
2022-09-10T12:47:53.640Z,18.50
2022-09-10T12:50:46.014Z,18.30
2022-09-10T12:54:07.928Z,18.70
2022-09-10T12:57:12.888Z,19.00
2022-09-10T13:00:13.139Z,18.70
2022-09-10T13:02:52.499Z,18.80
2022-09-10T13:05:29.648Z,19.10
2022-09-10T13:08:18.786Z,18.80
2022-09-10T13:10:50.956Z,18.90
2022-09-10T13:13:35.841Z,19.10
2022-09-10T13:16:07.442Z,19.20
2022-09-10T13:18:37.182Z,19.10
2022-09-10T13:21:52.332Z,19.00
2022-09-10T13:24:39.720Z,19.20
2022-09-10T13:27:23.940Z,19.40
2022-09-10T13:30:10.457Z,19.40
2022-09-10T13:32:45.362Z,19.50
2022-09-10T13:35:52.704Z,19.60
2022-09-10T13:39:12.292Z,19.40
2022-09-10T13:42:14.921Z,19.60
2022-09-10T13:45:20.961Z,19.60
2022-09-10T13:48:01.089Z,19.30
2022-09-10T13:50:37.873Z,19.40
2022-09-10T13:53:10.774Z,19.20
2022-09-10T13:55:41.636Z,19.00
2022-09-10T13:58:17.287Z,19.40
2022-09-10T14:00:54.689Z,18.80
2022-09-10T14:03:30.247Z,18.90
2022-09-10T14:06:01.584Z,18.80
2022-09-10T14:08:35.688Z,19.10
2022-09-10T14:11:14.425Z,19.10
2022-09-10T14:13:48.488Z,18.70
2022-09-10T14:16:29.499Z,18.60
2022-09-10T14:19:03.871Z,18.90
2022-09-10T14:21:32.794Z,19.00
2022-09-10T14:24:01.319Z,19.10
2022-09-10T14:26:33.719Z,18.90
2022-09-10T14:29:04.588Z,19.30
2022-09-10T14:31:38.265Z,19.40
2022-09-10T14:34:33.230Z,19.40
2022-09-10T14:37:03.082Z,19.70
2022-09-10T14:39:31.460Z,19.30
2022-09-10T14:42:22.395Z,19.50
2022-09-10T14:44:50.723Z,19.30
2022-09-10T14:47:30.324Z,20.00
2022-09-10T14:50:38.756Z,20.20
2022-09-10T14:53:06.981Z,20.20
2022-09-10T14:55:35.275Z,19.80
2022-09-10T14:58:03.507Z,19.90
2022-09-10T15:00:31.912Z,19.70
2022-09-10T15:03:00.582Z,19.40
2022-09-10T15:05:29.730Z,20.30
2022-09-10T15:07:59.375Z,19.90
2022-09-10T15:10:27.707Z,19.70
2022-09-10T15:12:56.614Z,19.90
2022-09-10T15:15:26.902Z,20.10
2022-09-10T15:17:55.157Z,20.10
2022-09-10T15:20:27.633Z,19.70
2022-09-10T15:22:56.226Z,19.70
2022-09-10T15:25:38.184Z,19.40
2022-09-10T15:28:07.916Z,19.70
2022-09-10T15:30:36.998Z,19.80
2022-09-10T15:33:06.165Z,19.70
2022-09-10T15:35:34.480Z,20.40
2022-09-10T15:38:02.689Z,20.50
2022-09-10T15:40:32.362Z,20.20
2022-09-10T15:43:00.645Z,20.30
2022-09-10T15:45:28.912Z,20.20
2022-09-10T15:47:57.587Z,20.30
2022-09-10T15:50:25.919Z,20.40
2022-09-10T15:52:54.205Z,20.50
2022-09-10T15:55:22.439Z,20.50
2022-09-10T15:57:53.176Z,20.40
2022-09-10T16:00:21.953Z,20.40
2022-09-10T16:02:53.096Z,19.90
2022-09-10T16:05:22.417Z,19.80
2022-09-10T16:07:50.622Z,19.40
2022-09-10T16:10:19.145Z,19.50
2022-09-10T16:12:47.409Z,19.40
2022-09-10T16:15:17.370Z,19.70
2022-09-10T16:17:45.812Z,19.60
2022-09-10T16:20:14.043Z,19.70
2022-09-10T16:22:42.287Z,19.70
2022-09-10T16:25:12.096Z,20.00
2022-09-10T16:27:43.244Z,20.20
2022-09-10T16:30:13.860Z,19.80
2022-09-10T16:32:43.438Z,19.70
2022-09-10T16:35:11.960Z,19.80
2022-09-10T16:37:40.173Z,19.60
2022-09-10T16:40:11.633Z,19.90
2022-09-10T16:42:39.895Z,20.10
2022-09-10T16:45:10.283Z,20.30
2022-09-10T16:47:38.500Z,20.20
2022-09-10T16:50:09.603Z,20.30
2022-09-10T16:52:37.913Z,20.40
2022-09-10T16:55:07.094Z,19.90
2022-09-10T16:57:35.335Z,19.90
2022-09-10T17:00:06.135Z,19.70
2022-09-10T17:02:35.203Z,19.80
2022-09-10T17:05:03.482Z,20.10
2022-09-10T17:07:33.281Z,20.20
2022-09-10T17:10:01.544Z,20.20
2022-09-10T17:12:29.812Z,20.10
2022-09-10T17:14:58.063Z,20.30
2022-09-10T17:17:26.315Z,20.00
2022-09-10T17:19:54.604Z,20.00
2022-09-10T17:22:22.851Z,20.10
2022-09-10T17:24:53.963Z,19.80
2022-09-10T17:27:25.380Z,20.00
2022-09-10T17:29:53.968Z,20.00
2022-09-10T17:32:22.285Z,20.20
2022-09-10T17:34:51.583Z,20.40
2022-09-10T17:37:19.987Z,20.40
2022-09-10T17:39:48.338Z,20.40
2022-09-10T17:42:18.008Z,20.10
2022-09-10T17:44:47.203Z,20.10
2022-09-10T17:47:15.434Z,20.40
2022-09-10T17:49:44.259Z,20.00
2022-09-10T17:52:14.586Z,20.40
2022-09-10T17:54:43.038Z,20.10
2022-09-10T17:57:11.413Z,20.00
2022-09-10T17:59:41.050Z,20.30
2022-09-10T18:02:13.994Z,20.40
2022-09-10T18:04:42.552Z,20.10
2022-09-10T18:07:11.944Z,20.00
2022-09-10T18:09:40.173Z,20.20
2022-09-10T18:12:08.789Z,20.20
2022-09-10T18:14:38.494Z,20.40
2022-09-10T18:17:08.132Z,20.60
2022-09-10T18:19:36.544Z,20.10
2022-09-10T18:22:05.246Z,20.60
2022-09-10T18:24:33.613Z,20.80
2022-09-10T18:27:04.609Z,20.50
2022-09-10T18:29:33.338Z,20.30
2022-09-10T18:32:02.114Z,20.50
2022-09-10T18:34:32.496Z,20.50
2022-09-10T18:37:02.852Z,20.60
2022-09-10T18:39:33.586Z,20.70
2022-09-10T18:42:02.807Z,20.90
2022-09-10T18:44:34.312Z,20.80
2022-09-10T18:47:02.569Z,20.90
2022-09-10T18:49:33.579Z,20.30
2022-09-10T18:52:02.014Z,20.60
2022-09-10T18:54:30.540Z,20.50
2022-09-10T18:56:59.066Z,20.70
2022-09-10T18:59:27.498Z,20.90
2022-09-10T19:01:56.922Z,20.50
2022-09-10T19:04:28.096Z,20.60
2022-09-10T19:06:58.632Z,20.50
2022-09-10T19:09:31.377Z,20.50
2022-09-10T19:12:01.370Z,20.30
2022-09-10T19:14:32.455Z,20.40
2022-09-10T19:17:02.287Z,20.40
2022-09-10T19:19:33.094Z,20.50
2022-09-10T19:22:07.153Z,20.40
2022-09-10T19:24:54.989Z,20.00
2022-09-10T19:27:24.330Z,20.50
2022-09-10T19:29:53.777Z,20.70
2022-09-10T19:32:22.146Z,20.60
2022-09-10T19:34:51.326Z,20.60
2022-09-10T19:37:21.099Z,20.80
2022-09-10T19:39:49.536Z,20.80
2022-09-10T19:42:18.279Z,20.60
2022-09-10T19:44:46.519Z,20.70
2022-09-10T19:47:14.770Z,20.20
2022-09-10T19:49:43.198Z,20.40
2022-09-10T19:52:11.772Z,20.40
2022-09-10T19:54:41.361Z,20.20
2022-09-10T19:57:09.607Z,20.30
2022-09-10T19:59:38.146Z,20.10
2022-09-10T20:02:06.502Z,20.00
2022-09-10T20:04:35.981Z,20.20
2022-09-10T20:07:04.260Z,20.00
2022-09-10T20:09:34.762Z,20.00
2022-09-10T20:12:06.859Z,20.10
2022-09-10T20:14:35.087Z,20.30
2022-09-10T20:17:03.458Z,20.50
2022-09-10T20:19:31.749Z,20.50
2022-09-10T20:22:00.001Z,20.90
2022-09-10T20:24:28.732Z,20.60
2022-09-10T20:26:57.075Z,20.60
2022-09-10T20:29:28.467Z,20.70
2022-09-10T20:31:56.704Z,20.70
2022-09-10T20:34:25.515Z,20.30
2022-09-10T20:36:53.943Z,20.50
2022-09-10T20:39:25.234Z,20.80
2022-09-10T20:41:53.922Z,20.80
2022-09-10T20:44:23.043Z,20.90
2022-09-10T20:46:52.937Z,21.00
2022-09-10T20:49:21.359Z,20.90
2022-09-10T20:51:49.787Z,20.80
2022-09-10T20:54:20.228Z,20.70
2022-09-10T20:56:48.857Z,20.90
2022-09-10T20:59:19.254Z,20.80
2022-09-10T21:01:50.785Z,20.90
2022-09-10T21:04:21.922Z,21.10
2022-09-10T21:06:50.177Z,21.10
2022-09-10T21:09:18.592Z,21.00
2022-09-10T21:11:46.832Z,21.00
2022-09-10T21:14:15.320Z,20.90
2022-09-10T21:16:47.252Z,21.00
2022-09-10T21:19:17.831Z,20.90
2022-09-10T21:21:48.852Z,21.00
2022-09-10T21:24:22.561Z,20.90
2022-09-10T21:26:53.287Z,21.00
2022-09-10T21:29:23.071Z,21.20
2022-09-10T21:31:53.352Z,21.10
2022-09-10T21:34:21.662Z,21.30
2022-09-10T21:36:51.416Z,21.30
2022-09-10T21:39:19.771Z,21.40
2022-09-10T21:41:51.273Z,21.30
2022-09-10T21:44:22.137Z,21.30
2022-09-10T21:46:51.281Z,21.30
2022-09-10T21:49:20.220Z,21.30
2022-09-10T21:51:50.329Z,21.30
2022-09-10T21:54:20.710Z,21.40
2022-09-10T21:56:49.804Z,21.30
2022-09-10T21:59:18.591Z,21.10
2022-09-10T22:01:48.081Z,21.10
2022-09-10T22:04:21.699Z,20.80
2022-09-10T22:06:54.390Z,20.70
2022-09-10T22:09:24.374Z,20.70
2022-09-10T22:11:54.282Z,20.90
2022-09-10T22:14:25.362Z,20.80
2022-09-10T22:16:55.030Z,20.90
2022-09-10T22:19:26.105Z,21.10
2022-09-10T22:21:56.907Z,21.00
2022-09-10T22:24:26.075Z,20.90
2022-09-10T22:26:54.607Z,21.10
2022-09-10T22:29:23.068Z,21.10
2022-09-10T22:31:51.327Z,21.20
2022-09-10T22:34:20.755Z,21.20
2022-09-10T22:36:49.576Z,21.10
2022-09-10T22:39:22.242Z,20.90
2022-09-10T22:41:52.024Z,20.60
2022-09-10T22:44:20.566Z,20.80
2022-09-10T22:46:48.967Z,20.60
2022-09-10T22:49:18.019Z,20.30
2022-09-10T22:51:46.305Z,20.20
2022-09-10T22:54:14.849Z,20.20
2022-09-10T22:56:44.745Z,20.60
2022-09-10T22:59:14.629Z,20.50
2022-09-10T23:01:47.438Z,20.60
2022-09-10T23:04:16.126Z,20.40
2022-09-10T23:06:44.409Z,20.60
2022-09-10T23:09:15.358Z,20.70
2022-09-10T23:11:46.173Z,20.50
2022-09-10T23:14:19.262Z,20.70
2022-09-10T23:16:49.936Z,20.50
2022-09-10T23:19:21.549Z,20.60
2022-09-10T23:21:52.358Z,20.70
2022-09-10T23:24:24.217Z,20.80
2022-09-10T23:26:54.521Z,20.10
2022-09-10T23:29:24.143Z,20.60
2022-09-10T23:31:54.342Z,20.60
2022-09-10T23:34:23.773Z,20.70
2022-09-10T23:36:53.653Z,20.80
2022-09-10T23:39:23.622Z,21.00
2022-09-10T23:41:56.745Z,20.90
2022-09-10T23:44:25.344Z,20.90
2022-09-10T23:46:55.527Z,20.90
2022-09-10T23:49:24.986Z,20.80
2022-09-10T23:51:53.246Z,20.50
2022-09-10T23:54:21.580Z,20.60
2022-09-10T23:56:49.848Z,20.90
2022-09-10T23:59:19.491Z,21.00
